createdAt,value
2023-11-05T00:01:48.641Z,8.50
2023-11-05T00:04:51.784Z,8.50
2023-11-05T00:07:55.267Z,8.50
2023-11-05T00:10:58.329Z,8.50
2023-11-05T00:14:02.926Z,8.60
2023-11-05T00:17:06.004Z,8.60
2023-11-05T00:20:11.227Z,8.60
2023-11-05T00:23:14.804Z,8.60
2023-11-05T00:26:18.116Z,8.60
2023-11-05T00:29:22.608Z,8.60
2023-11-05T00:32:25.744Z,8.50
2023-11-05T00:35:29.095Z,8.50
2023-11-05T00:38:32.930Z,8.40
2023-11-05T00:41:36.019Z,8.40
2023-11-05T00:44:40.552Z,8.40
2023-11-05T00:47:43.640Z,8.40
2023-11-05T00:50:47.116Z,8.50
2023-11-05T00:53:50.241Z,8.40
2023-11-05T00:56:53.438Z,8.40
2023-11-05T00:59:59.472Z,8.40
2023-11-05T01:03:02.928Z,8.50
2023-11-05T01:06:06.787Z,8.40
2023-11-05T01:09:10.553Z,8.40
2023-11-05T01:12:13.683Z,8.50
2023-11-05T01:15:18.689Z,8.50
2023-11-05T01:18:22.033Z,8.50
2023-11-05T01:21:25.372Z,8.50
2023-11-05T01:24:28.823Z,8.50
2023-11-05T01:27:32.079Z,8.50
2023-11-05T01:30:37.127Z,8.60
2023-11-05T01:33:40.513Z,8.60
2023-11-05T01:36:43.690Z,8.60
2023-11-05T01:39:46.878Z,8.60
2023-11-05T01:42:53.655Z,8.60
2023-11-05T01:49:25.560Z,8.60
2023-11-05T01:55:58.588Z,8.70
2023-11-05T01:59:04.222Z,8.80
2023-11-05T02:02:09.685Z,8.80
2023-11-05T02:05:14.284Z,8.90
2023-11-05T02:08:17.514Z,8.90
2023-11-05T02:11:21.997Z,8.90
2023-11-05T02:14:25.302Z,8.90
2023-11-05T02:17:30.193Z,8.70
2023-11-05T02:20:33.299Z,8.70
2023-11-05T02:23:38.370Z,8.60
2023-11-05T02:26:41.687Z,8.60
2023-11-05T02:29:45.443Z,8.60
2023-11-05T02:32:48.811Z,8.50
2023-11-05T02:35:52.107Z,8.50
2023-11-05T02:38:56.551Z,8.50
2023-11-05T02:41:59.953Z,8.50
2023-11-05T02:45:05.253Z,8.50
2023-11-05T02:48:08.834Z,8.50
2023-11-05T02:51:12.391Z,8.50
2023-11-05T02:54:17.107Z,8.50
2023-11-05T02:57:22.221Z,8.40
2023-11-05T03:00:29.412Z,8.30
2023-11-05T03:03:33.393Z,8.30
2023-11-05T03:06:36.598Z,8.30
2023-11-05T03:09:41.428Z,8.20
2023-11-05T03:12:44.931Z,8.10
2023-11-05T03:15:48.153Z,8.10
2023-11-05T03:18:51.554Z,8.10
2023-11-05T03:21:54.797Z,8.10
2023-11-05T03:25:01.617Z,8.10
2023-11-05T03:28:05.258Z,8.20
2023-11-05T03:31:08.483Z,8.10
2023-11-05T03:34:11.628Z,8.20
2023-11-05T03:37:14.796Z,8.20
2023-11-05T03:40:20.401Z,8.20
2023-11-05T03:43:23.587Z,8.10
2023-11-05T03:46:26.806Z,8.20
2023-11-05T03:49:29.976Z,8.10
2023-11-05T03:52:36.024Z,8.10
2023-11-05T03:55:40.529Z,8.10
2023-11-05T03:58:43.821Z,8.10
2023-11-05T04:01:50.903Z,8.10
2023-11-05T04:04:54.983Z,8.10
2023-11-05T04:07:58.132Z,8.10
2023-11-05T04:11:02.692Z,8.20
2023-11-05T04:14:06.017Z,8.20
2023-11-05T04:17:09.232Z,8.10
2023-11-05T04:20:12.414Z,8.10
2023-11-05T04:23:15.690Z,8.10
2023-11-05T04:26:20.258Z,8.20
2023-11-05T04:29:23.523Z,8.20
2023-11-05T04:32:26.677Z,8.20
2023-11-05T04:35:32.179Z,8.20
2023-11-05T04:38:40.730Z,8.30
2023-11-05T04:41:45.664Z,8.30
2023-11-05T04:44:48.652Z,8.30
2023-11-05T04:47:51.900Z,8.30
2023-11-05T04:50:55.740Z,8.30
2023-11-05T04:53:59.373Z,8.30
2023-11-05T04:57:04.160Z,8.30
2023-11-05T05:00:10.237Z,8.30
2023-11-05T05:03:13.368Z,8.40
2023-11-05T05:06:16.635Z,8.40
2023-11-05T05:09:20.028Z,8.40
2023-11-05T05:12:24.463Z,8.30
2023-11-05T05:15:27.529Z,8.30
2023-11-05T05:18:31.089Z,8.30
2023-11-05T05:21:34.202Z,8.30
2023-11-05T05:24:37.856Z,8.30
2023-11-05T05:27:43.522Z,8.20
2023-11-05T05:30:46.730Z,8.20
2023-11-05T05:33:49.854Z,8.20
2023-11-05T05:36:53.087Z,8.20
2023-11-05T05:39:56.348Z,8.20
2023-11-05T05:43:00.862Z,8.20
2023-11-05T05:46:04.120Z,8.20
2023-11-05T05:49:07.466Z,8.20
2023-11-05T05:52:11.620Z,8.20
2023-11-05T05:55:16.586Z,8.20
2023-11-05T05:58:29.487Z,8.30
2023-11-05T06:01:35.490Z,8.20
2023-11-05T06:04:38.813Z,8.30
2023-11-05T06:07:42.304Z,8.20
2023-11-05T06:10:45.616Z,8.20
2023-11-05T06:13:50.284Z,8.20
2023-11-05T06:16:53.484Z,8.20
2023-11-05T06:19:56.651Z,8.20
2023-11-05T06:23:00.077Z,8.20
2023-11-05T06:26:03.965Z,8.20
2023-11-05T06:29:08.930Z,8.30
2023-11-05T06:32:12.166Z,8.20
2023-11-05T06:35:18.133Z,8.20
2023-11-05T06:41:49.418Z,8.20
2023-11-05T06:44:55.585Z,8.30
2023-11-05T06:47:59.043Z,8.40
2023-11-05T06:51:03.681Z,8.50
2023-11-05T06:54:07.535Z,8.60
2023-11-05T06:57:11.391Z,8.60
2023-11-05T07:00:17.845Z,8.80
2023-11-05T07:03:25.280Z,9.00
2023-11-05T07:06:29.006Z,9.00
2023-11-05T07:09:38.569Z,9.20
2023-11-05T07:12:43.332Z,9.20
2023-11-05T07:15:47.914Z,9.30
2023-11-05T07:18:51.500Z,9.40
2023-11-05T07:21:54.716Z,9.40
2023-11-05T07:24:57.960Z,9.50
2023-11-05T07:28:01.621Z,9.50
2023-11-05T07:31:07.001Z,9.50
2023-11-05T07:34:11.777Z,9.40
2023-11-05T07:37:15.348Z,9.40
2023-11-05T07:40:22.508Z,9.40
2023-11-05T07:43:50.164Z,9.40
2023-11-05T07:54:45.350Z,9.40
2023-11-05T07:58:47.720Z,9.50
2023-11-05T08:02:02.704Z,9.60
2023-11-05T08:05:17.896Z,9.50
2023-11-05T08:08:28.555Z,9.60
2023-11-05T08:11:33.811Z,9.60
2023-11-05T08:14:37.523Z,9.70
2023-11-05T08:18:26.242Z,9.80
2023-11-05T08:25:09.933Z,10.00
2023-11-05T08:28:25.377Z,10.00
2023-11-05T08:31:36.250Z,10.00
2023-11-05T08:34:42.006Z,10.00
2023-11-05T08:37:45.801Z,10.00
2023-11-05T08:40:50.955Z,9.80
2023-11-05T08:43:56.366Z,9.70
2023-11-05T08:47:05.706Z,9.70
2023-11-05T08:50:10.046Z,9.70
2023-11-05T08:53:13.279Z,9.70
2023-11-05T08:56:16.510Z,9.60
2023-11-05T08:59:21.176Z,9.60
2023-11-05T09:02:25.438Z,9.80
2023-11-05T09:05:28.843Z,9.80
2023-11-05T09:08:32.301Z,9.80
2023-11-05T09:11:37.717Z,9.80
2023-11-05T09:14:44.598Z,9.70
2023-11-05T09:17:47.933Z,9.70
2023-11-05T09:24:53.881Z,9.80
2023-11-05T09:27:57.458Z,9.80
2023-11-05T09:31:02.598Z,9.90
2023-11-05T09:34:09.023Z,9.80
2023-11-05T09:37:18.461Z,9.80
2023-11-05T09:40:22.215Z,9.90
2023-11-05T09:43:25.506Z,9.90
2023-11-05T09:46:30.696Z,9.90
2023-11-05T09:49:34.450Z,10.00
2023-11-05T09:52:41.048Z,10.00
2023-11-05T09:55:46.656Z,9.90
2023-11-05T09:58:50.019Z,9.90
2023-11-05T10:01:57.588Z,10.00
2023-11-05T10:05:01.387Z,10.00
2023-11-05T10:08:06.425Z,10.00
2023-11-05T10:11:10.747Z,10.00
2023-11-05T10:14:15.572Z,10.00
2023-11-05T10:17:20.267Z,10.00
2023-11-05T10:20:23.525Z,10.00
2023-11-05T10:23:29.009Z,9.90
2023-11-05T10:26:34.697Z,10.00
2023-11-05T10:29:39.618Z,10.10
2023-11-05T10:32:46.877Z,10.20
2023-11-05T10:35:50.601Z,10.10
2023-11-05T10:38:53.899Z,10.20
2023-11-05T10:41:57.921Z,10.10
2023-11-05T10:45:04.116Z,10.10
2023-11-05T10:48:11.742Z,10.10
2023-11-05T10:51:18.598Z,10.00
2023-11-05T10:54:24.531Z,10.10
2023-11-05T10:57:44.698Z,10.30
2023-11-05T11:00:55.884Z,10.40
2023-11-05T11:04:16.676Z,10.50
2023-11-05T11:07:26.056Z,10.60
2023-11-05T11:10:38.791Z,10.70
2023-11-05T11:14:07.652Z,10.80
2023-11-05T11:17:20.028Z,10.70
2023-11-05T11:20:39.134Z,10.80
2023-11-05T11:23:50.857Z,11.00
2023-11-05T11:26:54.449Z,11.10
2023-11-05T11:29:58.390Z,11.10
2023-11-05T11:33:01.717Z,11.10
2023-11-05T11:36:09.067Z,11.10
2023-11-05T11:39:12.216Z,11.30
2023-11-05T11:42:15.514Z,11.30
2023-11-05T11:45:23.206Z,11.40
2023-11-05T11:48:27.696Z,11.40
2023-11-05T11:51:40.039Z,11.40
2023-11-05T11:54:49.797Z,11.40
2023-11-05T11:57:55.828Z,11.40
2023-11-05T12:01:00.416Z,11.40
2023-11-05T12:04:04.279Z,11.40
2023-11-05T12:07:08.956Z,11.30
2023-11-05T12:10:14.326Z,11.40
2023-11-05T12:13:18.076Z,11.50
2023-11-05T12:16:21.249Z,11.50
2023-11-05T12:19:25.908Z,11.70
2023-11-05T12:22:30.584Z,11.80
2023-11-05T12:25:35.568Z,11.90
2023-11-05T12:28:39.486Z,11.80
2023-11-05T12:31:45.765Z,11.70
2023-11-05T12:34:49.348Z,11.90
2023-11-05T12:37:54.304Z,11.90
2023-11-05T12:41:01.480Z,12.10
2023-11-05T12:44:04.885Z,12.10
2023-11-05T12:47:10.284Z,12.10
2023-11-05T12:50:14.562Z,12.10
2023-11-05T12:53:22.763Z,12.20
2023-11-05T12:56:26.245Z,12.20
2023-11-05T12:59:34.505Z,12.20
2023-11-05T13:02:53.483Z,12.10
2023-11-05T13:06:43.045Z,12.10
2023-11-05T13:10:01.808Z,12.10
2023-11-05T13:13:12.791Z,12.20
2023-11-05T13:16:18.373Z,12.20
2023-11-05T13:19:22.117Z,12.30
2023-11-05T13:22:25.467Z,12.20
2023-11-05T13:25:43.563Z,12.20
2023-11-05T13:29:10.610Z,12.30
2023-11-05T13:32:16.643Z,12.30
2023-11-05T13:35:23.018Z,12.40
2023-11-05T13:38:26.291Z,12.50
2023-11-05T13:41:41.572Z,12.50
2023-11-05T13:44:44.687Z,12.40
2023-11-05T13:47:47.949Z,12.50
2023-11-05T13:50:52.633Z,12.50
2023-11-05T13:53:55.946Z,12.50
2023-11-05T13:57:03.101Z,12.50
2023-11-05T14:00:09.408Z,12.50
2023-11-05T14:03:13.212Z,12.40
2023-11-05T14:06:16.865Z,12.30
2023-11-05T14:09:22.573Z,12.30
2023-11-05T14:12:27.517Z,12.30
2023-11-05T14:15:30.958Z,12.30
2023-11-05T14:18:34.111Z,12.30
2023-11-05T14:21:37.344Z,12.30
2023-11-05T14:24:40.843Z,12.30
2023-11-05T14:27:45.466Z,12.30
2023-11-05T14:30:48.705Z,12.30
2023-11-05T14:33:53.151Z,12.30
2023-11-05T14:37:11.345Z,12.40
2023-11-05T14:40:50.282Z,12.40
2023-11-05T14:43:55.039Z,12.30
2023-11-05T14:47:07.025Z,12.30
2023-11-05T14:50:10.768Z,12.30
2023-11-05T14:53:22.439Z,12.40
2023-11-05T14:56:28.828Z,12.30
2023-11-05T15:00:09.889Z,12.30
2023-11-05T15:03:16.618Z,12.30
2023-11-05T15:06:25.010Z,12.20
2023-11-05T15:09:54.838Z,12.20
2023-11-05T15:13:03.321Z,12.10
2023-11-05T15:16:21.820Z,12.00
2023-11-05T15:19:35.089Z,11.90
2023-11-05T15:22:53.053Z,11.90
2023-11-05T15:26:10.513Z,11.90
2023-11-05T15:29:13.618Z,11.80
2023-11-05T15:32:20.053Z,11.70
2023-11-05T15:35:24.311Z,11.70
2023-11-05T15:38:35.737Z,11.70
2023-11-05T15:41:38.944Z,11.50
2023-11-05T15:44:43.252Z,11.50
2023-11-05T15:47:49.135Z,11.40
2023-11-05T15:50:55.652Z,11.40
2023-11-05T15:54:04.600Z,11.30
2023-11-05T15:57:10.707Z,11.30
2023-11-05T16:00:25.354Z,11.10
2023-11-05T16:03:37.649Z,11.10
2023-11-05T16:07:01.416Z,11.10
2023-11-05T16:10:07.751Z,11.10
2023-11-05T16:13:10.888Z,11.10
2023-11-05T16:16:13.886Z,11.00
2023-11-05T16:19:21.215Z,11.00
2023-11-05T16:22:24.474Z,11.00
2023-11-05T16:25:27.814Z,10.90
2023-11-05T16:28:31.145Z,10.90
2023-11-05T16:31:34.473Z,10.90
2023-11-05T16:34:42.720Z,10.90
2023-11-05T16:37:48.424Z,10.90
2023-11-05T16:40:52.009Z,11.00
2023-11-05T16:43:57.605Z,11.00
2023-11-05T16:47:01.368Z,11.00
2023-11-05T16:50:07.261Z,11.00
2023-11-05T16:53:10.951Z,11.00
2023-11-05T16:56:14.349Z,11.00
2023-11-05T16:59:22.835Z,11.00
2023-11-05T17:02:26.178Z,11.00
2023-11-05T17:05:32.694Z,11.10
2023-11-05T17:08:37.422Z,11.10
2023-11-05T17:11:43.243Z,11.20
2023-11-05T17:14:46.444Z,11.30
2023-11-05T17:17:49.771Z,11.30
2023-11-05T17:20:54.765Z,11.30
2023-11-05T17:23:57.844Z,11.30
2023-11-05T17:27:01.339Z,11.30
2023-11-05T17:30:04.512Z,11.40
2023-11-05T17:33:07.672Z,11.40
2023-11-05T17:36:14.381Z,11.40
2023-11-05T17:39:17.865Z,11.40
2023-11-05T17:42:21.701Z,11.40
2023-11-05T17:45:24.857Z,11.40
2023-11-05T17:48:28.079Z,11.40
2023-11-05T17:51:33.214Z,11.40
2023-11-05T17:54:36.234Z,11.40
2023-11-05T17:57:39.442Z,11.40
2023-11-05T18:00:42.898Z,11.40
2023-11-05T18:03:46.540Z,11.40
2023-11-05T18:06:51.147Z,11.40
2023-11-05T18:09:54.173Z,11.30
2023-11-05T18:12:57.456Z,11.30
2023-11-05T18:16:03.492Z,11.20
2023-11-05T18:19:07.168Z,11.10
2023-11-05T18:22:12.118Z,11.10
2023-11-05T18:25:15.265Z,11.00
2023-11-05T18:28:18.349Z,11.00
2023-11-05T18:31:23.061Z,10.90
2023-11-05T18:34:26.242Z,10.80
2023-11-05T18:37:31.942Z,10.80
2023-11-05T18:40:35.117Z,10.80
2023-11-05T18:43:39.629Z,10.80
2023-11-05T18:46:43.171Z,10.70
2023-11-05T18:49:46.451Z,10.70
2023-11-05T18:52:51.198Z,10.70
2023-11-05T18:55:56.233Z,10.60
2023-11-05T18:58:59.377Z,10.60
2023-11-05T19:02:02.739Z,10.50
2023-11-05T19:05:06.435Z,10.50
2023-11-05T19:08:11.292Z,10.40
2023-11-05T19:11:16.064Z,10.40
2023-11-05T19:14:19.564Z,10.40
2023-11-05T19:17:22.734Z,10.40
2023-11-05T19:20:26.066Z,10.40
2023-11-05T19:23:30.791Z,10.30
2023-11-05T19:26:34.658Z,10.30
2023-11-05T19:29:39.165Z,10.30
2023-11-05T19:32:44.682Z,10.30
2023-11-05T19:35:48.023Z,10.30
2023-11-05T19:42:22.415Z,10.30
2023-11-05T19:45:25.745Z,10.30
2023-11-05T19:48:29.165Z,10.20
2023-11-05T19:51:36.085Z,10.20
2023-11-05T19:54:43.444Z,10.20
2023-11-05T19:57:46.897Z,10.10
2023-11-05T20:00:50.950Z,10.20
2023-11-05T20:03:55.887Z,10.10
2023-11-05T20:07:00.288Z,10.10
2023-11-05T20:10:06.655Z,10.00
